Terminal Aerodrome Forecast
Issued by NWS

Home | Current Version | Previous Version | Text Only | Print | Product List | Glossary On
Versions: 1 2 3 4 5 6 7 8 9 10 11 12 13 14
000
FTUS45 KTFX 211700
TAFBZN
TAF
KBZN 211733Z 2118/2218 24011KT P6SM VCSH SCT060 BKN090
      TEMPO 2119/2122 VRB25G35KT -TSRA BKN050CB
     FM220300 15004KT P6SM SCT070 BKN100
     FM220900 16005KT P6SM FEW120=

USA.gov is the U.S. government's official web portal to all federal, state and local government web resources and services.